createdAt,value
2022-10-19T00:01:32.402Z,15.43
2022-10-19T00:04:22.736Z,17.42
2022-10-19T00:07:21.905Z,15.65
2022-10-19T00:10:15.336Z,15.65
2022-10-19T00:12:58.596Z,17.65
2022-10-19T00:15:43.417Z,16.67
2022-10-19T00:18:28.044Z,16.40
2022-10-19T00:21:11.389Z,17.13
2022-10-19T00:23:49.884Z,18.02
2022-10-19T00:26:31.469Z,17.80
2022-10-19T00:29:08.301Z,17.75
2022-10-19T00:31:59.850Z,18.08
2022-10-19T00:34:44.631Z,19.80
2022-10-19T00:37:27.387Z,19.13
2022-10-19T00:40:13.305Z,20.75
2022-10-19T00:42:58.285Z,19.42
2022-10-19T00:45:41.093Z,20.10
2022-10-19T00:48:33.580Z,19.67
2022-10-19T00:51:16.301Z,19.00
2022-10-19T00:53:56.467Z,20.07
2022-10-19T00:56:42.063Z,18.60
2022-10-19T01:02:32.529Z,19.35
2022-10-19T01:05:03.466Z,20.88
2022-10-19T01:07:31.916Z,19.10
2022-10-19T01:10:04.080Z,18.48
2022-10-19T01:12:38.376Z,19.45
2022-10-19T01:15:23.437Z,19.60
2022-10-19T01:18:01.659Z,19.77
2022-10-19T01:21:19.468Z,18.50
2022-10-19T01:24:00.628Z,18.75
2022-10-19T01:26:54.740Z,17.63
2022-10-19T01:29:36.491Z,18.42
2022-10-19T01:32:10.659Z,18.92
2022-10-19T01:35:03.809Z,19.10
2022-10-19T01:37:57.479Z,18.58
2022-10-19T01:40:49.517Z,18.27
2022-10-19T01:43:23.418Z,18.83
2022-10-19T01:46:20.255Z,17.98
2022-10-19T01:49:06.981Z,17.13
2022-10-19T01:51:39.618Z,17.30
2022-10-19T01:54:13.214Z,19.50
2022-10-19T01:56:44.706Z,18.92
2022-10-19T02:02:21.405Z,18.30
2022-10-19T02:05:03.283Z,17.95
2022-10-19T02:07:50.116Z,17.23
2022-10-19T02:10:36.681Z,17.85
2022-10-19T02:13:31.101Z,18.30
2022-10-19T02:16:20.770Z,17.27
2022-10-19T02:19:06.586Z,17.30
2022-10-19T02:22:22.467Z,18.38
2022-10-19T02:25:04.314Z,17.48
2022-10-19T02:27:44.291Z,17.98
2022-10-19T02:30:36.503Z,19.10
2022-10-19T02:33:19.889Z,19.40
2022-10-19T02:36:16.221Z,18.10
2022-10-19T02:39:03.337Z,18.05
2022-10-19T02:42:22.024Z,18.75
2022-10-19T02:45:08.964Z,17.55
2022-10-19T02:48:01.731Z,17.17
2022-10-19T02:50:54.166Z,19.05
2022-10-19T02:53:42.500Z,18.33
2022-10-19T02:56:27.057Z,19.73
2022-10-19T03:02:22.406Z,19.30
2022-10-19T03:04:52.682Z,20.60
2022-10-19T03:07:24.266Z,17.23
2022-10-19T03:09:54.947Z,19.30
2022-10-19T03:12:24.337Z,20.42
2022-10-19T03:14:53.993Z,20.08
2022-10-19T03:17:24.001Z,18.73
2022-10-19T03:19:52.630Z,18.95
2022-10-19T03:22:20.708Z,18.08
2022-10-19T03:24:49.374Z,16.85
2022-10-19T03:27:17.277Z,18.00
2022-10-19T03:29:45.078Z,17.65
2022-10-19T03:32:12.909Z,18.90
2022-10-19T03:34:40.678Z,18.23
2022-10-19T03:37:09.218Z,17.55
2022-10-19T03:39:36.875Z,17.02
2022-10-19T03:42:04.546Z,16.98
2022-10-19T03:44:34.222Z,17.13
2022-10-19T03:47:05.274Z,17.88
2022-10-19T03:49:36.845Z,17.58
2022-10-19T03:52:08.222Z,17.85
2022-10-19T03:54:36.154Z,16.52
2022-10-19T03:57:09.003Z,16.02
2022-10-19T03:59:37.550Z,17.67
2022-10-19T04:02:18.940Z,17.05
2022-10-19T04:04:46.748Z,16.35
2022-10-19T04:07:15.436Z,15.98
2022-10-19T04:09:45.910Z,16.60
2022-10-19T04:12:17.467Z,16.85
2022-10-19T04:14:57.356Z,16.95
2022-10-19T04:17:31.128Z,15.48
2022-10-19T04:20:00.613Z,15.65
2022-10-19T04:22:32.428Z,16.42
2022-10-19T04:25:13.332Z,17.67
2022-10-19T04:27:44.371Z,16.03
2022-10-19T04:30:13.291Z,16.33
2022-10-19T04:32:41.261Z,15.75
2022-10-19T04:35:13.934Z,15.93
2022-10-19T04:37:42.109Z,14.68
2022-10-19T04:40:14.964Z,15.35
2022-10-19T04:42:43.069Z,16.48
2022-10-19T04:45:11.178Z,15.80
2022-10-19T04:47:41.354Z,15.07
2022-10-19T04:50:10.096Z,16.13
2022-10-19T04:52:38.351Z,15.75
2022-10-19T04:55:06.802Z,16.17
2022-10-19T04:57:36.930Z,16.55
2022-10-19T05:00:06.223Z,16.30
2022-10-19T05:02:34.461Z,16.20
2022-10-19T05:05:04.047Z,17.83
2022-10-19T05:07:31.882Z,16.88
2022-10-19T05:10:00.143Z,17.15
2022-10-19T05:12:46.036Z,18.63
2022-10-19T05:15:22.707Z,17.73
2022-10-19T05:17:54.105Z,17.45
2022-10-19T05:20:22.892Z,18.50
2022-10-19T05:22:50.908Z,18.15
2022-10-19T05:25:18.938Z,17.42
2022-10-19T05:27:52.398Z,17.98
2022-10-19T05:30:22.495Z,17.67
2022-10-19T05:32:50.370Z,18.00
2022-10-19T05:35:21.503Z,18.10
2022-10-19T05:38:00.215Z,17.25
2022-10-19T05:40:28.448Z,17.85
2022-10-19T05:42:55.852Z,18.17
2022-10-19T05:45:23.473Z,17.83
2022-10-19T05:47:51.058Z,17.45
2022-10-19T05:50:21.801Z,19.88
2022-10-19T05:52:49.477Z,19.35
2022-10-19T05:55:17.067Z,18.05
2022-10-19T05:57:45.367Z,18.73
2022-10-19T06:00:13.579Z,19.10
2022-10-19T06:02:42.566Z,19.05
2022-10-19T06:05:10.449Z,18.20
2022-10-19T06:07:38.722Z,19.35
2022-10-19T06:10:08.440Z,19.85
2022-10-19T06:12:38.407Z,20.02
2022-10-19T06:15:06.819Z,20.60
2022-10-19T06:17:35.066Z,19.77
2022-10-19T06:20:03.168Z,19.95
2022-10-19T06:22:31.326Z,20.30
2022-10-19T06:25:01.811Z,19.83
2022-10-19T06:27:30.187Z,20.60
2022-10-19T06:29:58.835Z,18.98
2022-10-19T06:32:29.403Z,18.42
2022-10-19T06:34:57.226Z,18.38
2022-10-19T06:37:24.998Z,19.02
2022-10-19T06:39:54.182Z,18.60
2022-10-19T06:42:22.171Z,19.63
2022-10-19T06:44:55.404Z,18.92
2022-10-19T06:47:23.710Z,19.50
2022-10-19T06:50:00.100Z,19.83
2022-10-19T06:52:28.373Z,19.00
2022-10-19T06:57:39.570Z,19.33
2022-10-19T07:00:21.427Z,17.33
2022-10-19T07:02:54.844Z,18.23
2022-10-19T07:05:25.942Z,18.85
2022-10-19T07:07:54.677Z,17.88
2022-10-19T07:10:38.324Z,17.88
2022-10-19T07:13:12.236Z,17.58
2022-10-19T07:15:42.859Z,18.75
2022-10-19T07:18:15.234Z,17.23
2022-10-19T07:20:44.389Z,19.02
2022-10-19T07:23:13.784Z,18.55
2022-10-19T07:25:48.228Z,17.58
2022-10-19T07:28:16.996Z,16.83
2022-10-19T07:30:55.666Z,17.90
2022-10-19T07:36:29.328Z,16.58
2022-10-19T07:39:13.334Z,17.30
2022-10-19T07:41:46.261Z,16.10
2022-10-19T07:44:26.720Z,16.90
2022-10-19T07:47:01.707Z,17.05
2022-10-19T07:49:34.018Z,17.87
2022-10-19T07:52:08.818Z,17.23
2022-10-19T07:54:37.127Z,17.55
2022-10-19T07:57:05.827Z,16.65
2022-10-19T07:59:37.681Z,17.13
2022-10-19T08:02:10.218Z,16.52
2022-10-19T08:04:59.508Z,16.88
2022-10-19T08:07:38.811Z,15.48
2022-10-19T08:10:10.827Z,19.17
2022-10-19T08:12:47.546Z,15.65
2022-10-19T08:15:16.035Z,16.90
2022-10-19T08:17:47.429Z,15.85
2022-10-19T08:20:20.246Z,17.52
2022-10-19T08:22:56.493Z,15.70
2022-10-19T08:25:28.892Z,17.83
2022-10-19T08:27:59.071Z,17.90
2022-10-19T08:30:27.629Z,15.82
2022-10-19T08:33:00.094Z,16.05
2022-10-19T08:35:36.458Z,17.27
2022-10-19T08:38:12.664Z,17.08
2022-10-19T08:40:41.547Z,16.40
2022-10-19T08:43:37.685Z,19.23
2022-10-19T08:46:52.798Z,19.90
2022-10-19T08:49:26.505Z,18.30
2022-10-19T08:52:34.638Z,18.00
2022-10-19T08:55:19.669Z,17.67
2022-10-19T08:58:12.615Z,18.60
2022-10-19T09:00:59.166Z,19.65
2022-10-19T09:03:56.535Z,19.50
2022-10-19T09:06:36.033Z,19.83
2022-10-19T09:09:16.140Z,18.63
2022-10-19T09:12:05.397Z,18.95
2022-10-19T09:14:51.158Z,17.13
2022-10-19T09:17:22.275Z,19.35
2022-10-19T09:19:56.573Z,17.60
2022-10-19T09:22:32.190Z,19.08
2022-10-19T09:25:18.644Z,18.23
2022-10-19T09:27:51.213Z,16.63
2022-10-19T09:30:22.963Z,17.50
2022-10-19T09:33:03.956Z,16.13
2022-10-19T09:35:51.795Z,16.05
2022-10-19T09:38:30.100Z,15.68
2022-10-19T09:41:15.348Z,17.02
2022-10-19T09:44:01.063Z,15.13
2022-10-19T09:46:53.096Z,14.75
2022-10-19T09:49:40.815Z,15.77
2022-10-19T09:52:38.496Z,15.52
2022-10-19T09:55:31.553Z,14.13
2022-10-19T09:58:22.220Z,14.57
2022-10-19T10:01:04.531Z,13.23
2022-10-19T10:03:51.123Z,14.50
2022-10-19T10:06:33.329Z,13.30
2022-10-19T10:09:06.982Z,14.23
2022-10-19T10:11:38.902Z,14.65
2022-10-19T10:14:23.884Z,13.93
2022-10-19T10:17:03.407Z,13.65
2022-10-19T10:19:34.557Z,12.35
2022-10-19T10:22:07.567Z,13.07
2022-10-19T10:24:38.248Z,12.32
2022-10-19T10:27:07.293Z,13.63
2022-10-19T10:29:38.315Z,14.07
2022-10-19T10:32:19.201Z,12.25
2022-10-19T10:35:03.356Z,11.50
2022-10-19T10:37:41.391Z,12.18
2022-10-19T10:40:27.230Z,10.57
2022-10-19T10:42:58.596Z,10.85
2022-10-19T10:45:44.087Z,11.05
2022-10-19T10:48:28.481Z,11.18
2022-10-19T10:50:58.511Z,10.07
2022-10-19T10:53:39.059Z,10.50
2022-10-19T10:56:32.632Z,8.82
2022-10-19T10:59:17.496Z,11.57
2022-10-19T11:02:15.428Z,10.00
2022-10-19T11:04:52.616Z,10.77
2022-10-19T11:07:27.830Z,11.15
2022-10-19T11:10:22.692Z,11.18
2022-10-19T11:13:06.295Z,10.00
2022-10-19T11:15:55.801Z,11.70
2022-10-19T11:18:55.712Z,10.98
2022-10-19T11:21:45.357Z,11.30
2022-10-19T11:24:31.764Z,12.30
2022-10-19T11:27:21.139Z,11.88
2022-10-19T11:30:01.014Z,12.40
2022-10-19T11:33:08.919Z,11.43
2022-10-19T11:35:56.033Z,11.43
2022-10-19T11:38:46.629Z,9.98
2022-10-19T11:41:40.712Z,11.98
2022-10-19T11:44:18.408Z,10.95
2022-10-19T11:47:01.621Z,10.18
2022-10-19T11:49:40.057Z,10.38
2022-10-19T11:52:57.998Z,10.30
2022-10-19T11:55:43.730Z,11.43
2022-10-19T11:58:32.366Z,11.60
2022-10-19T12:01:24.260Z,9.70
2022-10-19T12:04:05.065Z,10.82
2022-10-19T12:06:43.184Z,10.93
2022-10-19T12:09:20.369Z,10.80
2022-10-19T12:11:59.452Z,10.18
2022-10-19T12:14:32.820Z,10.98
2022-10-19T12:19:48.805Z,10.02
2022-10-19T12:22:23.257Z,11.05
2022-10-19T12:24:56.029Z,11.25
2022-10-19T12:27:53.671Z,9.63
2022-10-19T12:30:24.656Z,9.85
2022-10-19T12:33:24.631Z,9.30
2022-10-19T12:36:31.786Z,9.57
2022-10-19T12:39:06.364Z,10.15
2022-10-19T12:41:36.148Z,11.35
2022-10-19T12:44:21.255Z,12.07
2022-10-19T12:46:56.509Z,9.95
2022-10-19T12:49:34.359Z,10.98
2022-10-19T12:52:05.780Z,10.50
2022-10-19T12:54:47.138Z,10.13
2022-10-19T12:57:28.758Z,10.43
2022-10-19T13:00:29.654Z,12.18
2022-10-19T13:06:30.525Z,9.93
2022-10-19T13:10:09.548Z,9.20
2022-10-19T13:12:47.308Z,8.88
2022-10-19T13:15:47.811Z,8.00
2022-10-19T13:18:41.416Z,8.20
2022-10-19T13:22:07.744Z,9.07
2022-10-19T13:25:26.105Z,8.18
2022-10-19T13:28:40.156Z,8.50
2022-10-19T13:31:39.061Z,8.13
2022-10-19T13:34:17.083Z,8.73
2022-10-19T13:37:06.029Z,10.05
2022-10-19T13:39:46.746Z,9.65
2022-10-19T13:42:28.936Z,10.13
2022-10-19T13:45:00.283Z,9.63
2022-10-19T13:47:42.476Z,9.38
2022-10-19T13:50:48.898Z,9.73
2022-10-19T13:53:56.872Z,9.85
2022-10-19T13:56:59.502Z,10.50
2022-10-19T13:59:54.596Z,9.93
2022-10-19T14:03:00.682Z,9.30
2022-10-19T14:05:34.598Z,9.30
2022-10-19T14:09:12.600Z,8.80
2022-10-19T14:11:58.518Z,9.43
2022-10-19T14:14:30.698Z,8.18
2022-10-19T14:17:04.623Z,8.43
2022-10-19T14:19:58.408Z,9.73
2022-10-19T14:22:39.270Z,8.60
2022-10-19T14:25:19.539Z,8.60
2022-10-19T14:28:01.730Z,9.50
2022-10-19T14:30:32.914Z,8.70
2022-10-19T14:33:05.027Z,10.00
2022-10-19T14:35:36.463Z,9.68
2022-10-19T14:38:09.277Z,9.73
2022-10-19T14:40:47.208Z,9.75
2022-10-19T14:43:29.044Z,10.10
2022-10-19T14:46:17.822Z,8.73
2022-10-19T14:48:50.412Z,8.32
2022-10-19T14:51:51.940Z,9.15
2022-10-19T14:54:33.509Z,8.77
2022-10-19T14:57:29.166Z,8.95
2022-10-19T15:00:09.737Z,8.40
2022-10-19T15:02:45.271Z,7.57
2022-10-19T15:05:23.621Z,9.20
2022-10-19T15:07:55.104Z,8.02
2022-10-19T15:10:52.378Z,8.15
2022-10-19T15:13:34.873Z,8.52
2022-10-19T15:16:03.086Z,9.10
2022-10-19T15:18:56.121Z,9.00
2022-10-19T15:21:27.272Z,8.77
2022-10-19T15:24:08.100Z,8.15
2022-10-19T15:26:37.127Z,8.85
2022-10-19T15:29:11.145Z,8.85
2022-10-19T15:31:40.923Z,10.05
2022-10-19T15:34:25.598Z,8.18
2022-10-19T15:37:02.798Z,8.25
2022-10-19T15:39:39.741Z,8.85
2022-10-19T15:42:38.112Z,8.88
2022-10-19T15:45:48.847Z,8.05
2022-10-19T15:48:24.221Z,8.00
2022-10-19T15:50:53.593Z,7.97
2022-10-19T15:53:28.573Z,8.43
2022-10-19T15:55:59.606Z,8.00
2022-10-19T15:58:31.558Z,7.85
2022-10-19T16:01:00.203Z,8.18
2022-10-19T16:03:28.175Z,8.02
2022-10-19T16:05:56.501Z,8.00
2022-10-19T16:08:51.520Z,9.00
2022-10-19T16:11:23.690Z,9.07
2022-10-19T16:13:55.458Z,8.35
2022-10-19T16:16:32.915Z,7.97
2022-10-19T16:19:08.594Z,8.18
2022-10-19T16:22:04.619Z,8.48
2022-10-19T16:24:32.574Z,7.80
2022-10-19T16:27:00.407Z,8.55
2022-10-19T16:29:30.884Z,8.63
2022-10-19T16:31:58.935Z,8.23
2022-10-19T16:34:29.744Z,7.53
2022-10-19T16:37:04.137Z,7.53
2022-10-19T16:39:35.140Z,9.13
2022-10-19T16:42:04.689Z,8.23
2022-10-19T16:44:34.550Z,10.65
2022-10-19T16:47:02.509Z,7.50
2022-10-19T16:49:31.814Z,10.05
2022-10-19T16:52:03.350Z,7.57
2022-10-19T16:54:35.802Z,8.27
2022-10-19T16:57:09.584Z,7.87
2022-10-19T16:59:43.289Z,7.93
2022-10-19T17:04:43.086Z,7.45
2022-10-19T17:09:43.746Z,8.93
2022-10-19T17:12:12.850Z,8.70
2022-10-19T17:14:47.510Z,8.60
2022-10-19T17:17:19.572Z,8.85
2022-10-19T17:19:49.358Z,8.85
2022-10-19T17:22:17.967Z,7.63
2022-10-19T17:24:55.710Z,7.88
2022-10-19T17:29:56.361Z,7.63
2022-10-19T17:32:26.176Z,9.02
2022-10-19T17:34:56.365Z,8.10
2022-10-19T17:37:28.045Z,8.40
2022-10-19T17:40:03.806Z,8.57
2022-10-19T17:42:35.570Z,9.75
2022-10-19T17:45:07.531Z,9.27
2022-10-19T17:47:44.201Z,9.95
2022-10-19T17:50:17.490Z,8.80
2022-10-19T17:52:48.284Z,8.55
2022-10-19T17:55:17.968Z,8.15
2022-10-19T17:57:46.511Z,9.23
2022-10-19T18:00:18.455Z,8.15
2022-10-19T18:02:52.588Z,8.85
2022-10-19T18:05:24.852Z,9.70
2022-10-19T18:07:59.168Z,8.27
2022-10-19T18:10:30.525Z,8.30
2022-10-19T18:13:01.362Z,8.02
2022-10-19T18:15:44.652Z,8.95
2022-10-19T18:18:22.395Z,8.00
2022-10-19T18:20:54.618Z,9.25
2022-10-19T18:23:23.124Z,10.40
2022-10-19T18:25:54.406Z,8.93
2022-10-19T18:28:29.091Z,9.55
2022-10-19T18:31:20.713Z,9.23
2022-10-19T18:36:42.836Z,8.10
2022-10-19T18:39:13.816Z,10.20
2022-10-19T18:41:45.782Z,8.93
2022-10-19T18:44:22.152Z,10.60
2022-10-19T18:47:15.194Z,9.02
2022-10-19T18:49:44.720Z,9.52
2022-10-19T18:52:40.178Z,9.75
2022-10-19T18:55:22.491Z,9.50
2022-10-19T18:58:10.123Z,9.57
2022-10-19T19:00:45.822Z,10.57
2022-10-19T19:03:37.382Z,9.68
2022-10-19T19:06:19.602Z,9.57
2022-10-19T19:08:48.812Z,8.70
2022-10-19T19:11:33.056Z,9.57
2022-10-19T19:14:26.701Z,10.07
2022-10-19T19:16:57.858Z,9.82
2022-10-19T19:19:31.314Z,10.05
2022-10-19T19:22:07.938Z,9.65
2022-10-19T19:24:48.704Z,9.60
2022-10-19T19:27:30.768Z,9.90
2022-10-19T19:30:07.899Z,9.80
2022-10-19T19:32:40.719Z,11.25
2022-10-19T19:35:13.653Z,10.25
2022-10-19T19:37:46.576Z,12.05
2022-10-19T19:40:15.744Z,9.93
2022-10-19T19:42:54.765Z,10.32
2022-10-19T19:45:35.479Z,10.23
2022-10-19T19:48:23.917Z,12.40
2022-10-19T19:51:08.813Z,10.98
2022-10-19T19:53:42.841Z,10.80
2022-10-19T19:56:26.391Z,10.65
2022-10-19T19:59:40.018Z,10.18
2022-10-19T20:02:23.472Z,11.05
2022-10-19T20:05:05.356Z,12.05
2022-10-19T20:07:38.861Z,11.55
2022-10-19T20:10:51.993Z,11.73
2022-10-19T20:16:47.263Z,11.02
2022-10-19T20:19:31.561Z,11.75
2022-10-19T20:22:05.626Z,10.95
2022-10-19T20:24:46.954Z,11.43
2022-10-19T20:27:15.956Z,11.13
2022-10-19T20:29:48.626Z,11.65
2022-10-19T20:32:22.585Z,11.02
2022-10-19T20:34:53.903Z,9.88
2022-10-19T20:40:23.165Z,11.27
2022-10-19T20:42:59.772Z,10.63
2022-10-19T20:45:32.650Z,10.57
2022-10-19T20:48:19.456Z,10.90
2022-10-19T20:50:49.628Z,11.60
2022-10-19T20:53:24.771Z,11.35
2022-10-19T20:55:56.886Z,11.02
2022-10-19T20:58:29.063Z,10.82
2022-10-19T21:01:11.698Z,11.77
2022-10-19T21:04:06.121Z,12.00
2022-10-19T21:06:44.074Z,11.60
2022-10-19T21:09:18.842Z,11.50
2022-10-19T21:11:49.003Z,10.88
2022-10-19T21:14:32.333Z,13.75
2022-10-19T21:17:02.028Z,12.63
2022-10-19T21:19:36.472Z,14.07
2022-10-19T21:22:09.812Z,12.00
2022-10-19T21:24:38.865Z,11.35
2022-10-19T21:27:15.122Z,12.35
2022-10-19T21:29:46.427Z,14.18
2022-10-19T21:32:32.867Z,12.93
2022-10-19T21:35:12.819Z,12.13
2022-10-19T21:37:51.908Z,12.75
2022-10-19T21:40:37.019Z,13.60
2022-10-19T21:43:20.343Z,14.30
2022-10-19T21:46:18.747Z,13.35
2022-10-19T21:49:08.419Z,13.10
2022-10-19T21:51:55.747Z,13.40
2022-10-19T21:54:36.674Z,14.02
2022-10-19T21:57:05.606Z,12.75
2022-10-19T21:59:42.867Z,14.10
2022-10-19T22:02:14.468Z,13.75
2022-10-19T22:04:42.559Z,13.07
2022-10-19T22:07:13.605Z,13.73
2022-10-19T22:09:47.344Z,14.15
2022-10-19T22:12:17.088Z,12.43
2022-10-19T22:14:46.043Z,12.07
2022-10-19T22:17:29.340Z,13.48
2022-10-19T22:19:58.168Z,12.88
2022-10-19T22:22:27.361Z,13.68
2022-10-19T22:24:55.458Z,12.60
2022-10-19T22:27:26.224Z,13.13
2022-10-19T22:29:58.217Z,12.75
2022-10-19T22:32:27.091Z,11.65
2022-10-19T22:34:55.300Z,13.73
2022-10-19T22:37:26.754Z,16.10
2022-10-19T22:39:54.750Z,15.15
2022-10-19T22:43:02.411Z,20.63
2022-10-19T22:45:51.547Z,16.17
2022-10-19T22:48:24.619Z,12.55
2022-10-19T22:53:25.370Z,13.60
2022-10-19T22:55:53.368Z,12.30
2022-10-19T22:58:21.415Z,13.75
2022-10-19T23:01:01.192Z,12.60
2022-10-19T23:03:29.528Z,12.50
2022-10-19T23:06:00.302Z,12.57
2022-10-19T23:08:28.695Z,13.10
2022-10-19T23:10:57.043Z,12.52
2022-10-19T23:13:25.218Z,12.45
2022-10-19T23:15:53.634Z,11.52
2022-10-19T23:18:22.269Z,12.80
2022-10-19T23:20:57.934Z,12.70
2022-10-19T23:23:26.506Z,12.35
2022-10-19T23:26:02.802Z,11.77
2022-10-19T23:28:32.648Z,12.10
2022-10-19T23:31:05.665Z,12.20
2022-10-19T23:33:34.914Z,12.15
2022-10-19T23:36:16.109Z,12.77
2022-10-19T23:38:46.307Z,11.45
2022-10-19T23:41:16.445Z,12.90
2022-10-19T23:43:45.165Z,12.40
2022-10-19T23:46:15.742Z,12.98
2022-10-19T23:48:47.661Z,12.32
2022-10-19T23:51:21.401Z,11.63
2022-10-19T23:53:55.785Z,11.90
2022-10-19T23:56:30.204Z,12.02
2022-10-19T23:59:10.395Z,13.82
